createdAt,value
2023-04-20T00:02:18.608Z,192.80
2023-04-20T00:04:46.793Z,187.20
2023-04-20T00:07:13.773Z,196.93
2023-04-20T00:09:40.826Z,191.27
2023-04-20T00:12:07.898Z,194.13
2023-04-20T00:14:34.944Z,199.60
2023-04-20T00:17:01.974Z,199.70
2023-04-20T00:19:33.098Z,199.87
2023-04-20T00:22:00.408Z,191.37
2023-04-20T00:24:27.376Z,196.30
2023-04-20T00:26:55.048Z,193.50
2023-04-20T00:29:22.255Z,187.67
2023-04-20T00:31:49.432Z,190.50
2023-04-20T00:34:16.380Z,192.67
2023-04-20T00:36:44.658Z,190.83
2023-04-20T00:39:11.643Z,196.47
2023-04-20T00:41:38.913Z,188.97
2023-04-20T00:44:08.182Z,190.37
2023-04-20T00:46:35.255Z,188.70
2023-04-20T00:49:05.816Z,187.57
2023-04-20T00:51:34.878Z,190.90
2023-04-20T00:54:02.220Z,192.60
2023-04-20T00:56:29.201Z,187.33
2023-04-20T00:58:56.451Z,193.07
2023-04-20T01:01:23.536Z,186.83
2023-04-20T01:03:50.623Z,188.07
2023-04-20T01:06:18.002Z,185.23
2023-04-20T01:08:51.185Z,193.13
2023-04-20T01:11:18.518Z,191.60
2023-04-20T01:13:45.917Z,188.83
2023-04-20T01:16:13.276Z,191.60
2023-04-20T01:18:46.451Z,189.33
2023-04-20T01:21:16.366Z,195.10
2023-04-20T01:23:44.271Z,193.50
2023-04-20T01:26:14.511Z,193.50
2023-04-20T01:28:42.736Z,195.37
2023-04-20T01:31:10.733Z,195.80
2023-04-20T01:33:37.938Z,191.77
2023-04-20T01:36:06.928Z,192.77
2023-04-20T01:38:34.918Z,192.07
2023-04-20T01:41:07.879Z,199.73
2023-04-20T01:43:36.219Z,190.80
2023-04-20T01:46:03.982Z,193.80
2023-04-20T01:48:31.045Z,196.53
2023-04-20T01:50:58.119Z,196.77
2023-04-20T01:53:27.936Z,204.57
2023-04-20T01:55:55.772Z,201.03
2023-04-20T01:58:23.377Z,195.50
2023-04-20T02:00:50.460Z,197.00
2023-04-20T02:03:17.854Z,198.47
2023-04-20T02:05:45.077Z,197.47
2023-04-20T02:08:12.048Z,197.30
2023-04-20T02:10:39.827Z,195.60
2023-04-20T02:13:06.779Z,190.10
2023-04-20T02:15:33.716Z,193.87
2023-04-20T02:18:00.860Z,193.30
2023-04-20T02:20:27.886Z,193.50
2023-04-20T02:22:54.907Z,196.70
2023-04-20T02:25:21.977Z,200.60
2023-04-20T02:27:49.686Z,194.27
2023-04-20T02:30:16.761Z,193.53
2023-04-20T02:32:44.450Z,193.40
2023-04-20T02:35:11.522Z,195.63
2023-04-20T02:37:38.446Z,201.07
2023-04-20T02:40:07.627Z,194.60
2023-04-20T02:42:34.693Z,193.50
2023-04-20T02:45:04.461Z,200.10
2023-04-20T02:47:31.547Z,195.50
2023-04-20T02:49:58.978Z,195.37
2023-04-20T02:52:26.374Z,195.37
2023-04-20T02:54:57.282Z,194.53
2023-04-20T02:57:25.484Z,193.13
2023-04-20T02:59:53.071Z,195.70
2023-04-20T03:02:25.367Z,196.83
2023-04-20T03:04:54.770Z,195.23
2023-04-20T03:07:22.502Z,198.07
2023-04-20T03:09:49.636Z,200.90
2023-04-20T03:12:48.796Z,197.80
2023-04-20T03:15:24.582Z,199.67
2023-04-20T03:18:20.369Z,194.27
2023-04-20T03:20:47.811Z,196.97
2023-04-20T03:23:14.776Z,195.73
2023-04-20T03:25:42.703Z,198.30
2023-04-20T03:28:17.285Z,192.33
2023-04-20T03:30:44.273Z,194.43
2023-04-20T03:33:15.258Z,195.50
2023-04-20T03:35:43.152Z,195.27
2023-04-20T03:38:10.347Z,195.40
2023-04-20T03:40:37.452Z,190.80
2023-04-20T03:43:04.983Z,190.50
2023-04-20T03:45:31.956Z,191.93
2023-04-20T03:47:58.955Z,192.47
2023-04-20T03:50:27.111Z,193.83
2023-04-20T03:52:54.060Z,199.67
2023-04-20T03:55:21.269Z,192.83
2023-04-20T03:57:55.021Z,194.27
2023-04-20T04:00:22.675Z,193.80
2023-04-20T04:02:56.982Z,188.40
2023-04-20T04:05:27.869Z,203.70
2023-04-20T04:07:55.320Z,195.73
2023-04-20T04:10:22.957Z,195.90
2023-04-20T04:12:50.010Z,192.93
2023-04-20T04:15:19.393Z,194.80
2023-04-20T04:17:55.061Z,191.20
2023-04-20T04:20:22.808Z,191.90
2023-04-20T04:22:49.870Z,197.67
2023-04-20T04:25:30.443Z,195.20
2023-04-20T04:27:58.094Z,195.50
2023-04-20T04:30:27.479Z,195.93
2023-04-20T04:32:55.502Z,195.10
2023-04-20T04:35:22.893Z,190.83
2023-04-20T04:37:50.109Z,191.63
2023-04-20T04:40:18.240Z,192.83
2023-04-20T04:42:48.591Z,193.57
2023-04-20T04:45:16.569Z,200.60
2023-04-20T04:47:43.749Z,193.70
2023-04-20T04:50:11.810Z,187.60
2023-04-20T04:52:38.904Z,194.90
2023-04-20T04:55:09.138Z,184.10
2023-04-20T04:57:36.398Z,178.43
2023-04-20T05:00:07.931Z,178.70
2023-04-20T05:02:35.734Z,183.87
2023-04-20T05:05:02.823Z,186.63
2023-04-20T05:07:29.960Z,187.63
2023-04-20T05:09:56.935Z,183.60
2023-04-20T05:12:25.640Z,182.63
2023-04-20T05:14:53.141Z,190.17
2023-04-20T05:17:20.148Z,190.40
2023-04-20T05:19:47.265Z,182.40
2023-04-20T05:22:14.243Z,181.30
2023-04-20T05:24:42.440Z,182.37
2023-04-20T05:27:09.777Z,180.47
2023-04-20T05:29:38.526Z,182.73
2023-04-20T05:32:05.807Z,169.30
2023-04-20T05:34:32.795Z,174.73
2023-04-20T05:36:59.976Z,182.60
2023-04-20T05:39:26.929Z,181.40
2023-04-20T05:41:53.831Z,179.23
2023-04-20T05:44:20.792Z,176.40
2023-04-20T05:46:47.750Z,173.23
2023-04-20T05:49:14.739Z,178.33
2023-04-20T05:51:41.679Z,173.93
2023-04-20T05:54:08.658Z,178.23
2023-04-20T05:56:35.770Z,173.33
2023-04-20T05:59:03.257Z,178.13
2023-04-20T06:01:30.287Z,171.47
2023-04-20T06:03:57.485Z,177.17
2023-04-20T06:06:24.570Z,175.53
2023-04-20T06:08:52.290Z,172.53
2023-04-20T06:11:19.317Z,172.23
2023-04-20T06:13:46.256Z,169.43
2023-04-20T06:16:13.333Z,176.05
2023-04-20T06:18:40.927Z,164.88
2023-04-20T06:21:11.225Z,165.43
2023-04-20T06:23:38.363Z,165.38
2023-04-20T06:26:08.674Z,164.10
2023-04-20T06:28:36.576Z,178.10
2023-04-20T06:31:06.811Z,165.43
2023-04-20T06:33:33.898Z,168.70
2023-04-20T06:36:00.834Z,170.48
2023-04-20T06:38:27.775Z,173.60
2023-04-20T06:40:54.764Z,178.25
2023-04-20T06:43:21.678Z,172.48
2023-04-20T06:45:48.601Z,164.85
2023-04-20T06:48:30.799Z,168.60
2023-04-20T06:50:58.878Z,166.93
2023-04-20T06:53:26.225Z,164.80
2023-04-20T06:55:56.848Z,164.50
2023-04-20T06:58:23.936Z,161.88
2023-04-20T07:00:50.949Z,159.18
2023-04-20T07:03:19.212Z,161.45
2023-04-20T07:05:46.746Z,165.50
2023-04-20T07:08:16.068Z,165.55
2023-04-20T07:10:43.290Z,153.88
2023-04-20T07:13:10.318Z,157.48
2023-04-20T07:15:37.466Z,149.30
2023-04-20T07:18:04.601Z,162.45
2023-04-20T07:20:31.982Z,141.95
2023-04-20T07:22:59.027Z,138.38
2023-04-20T07:25:26.068Z,145.90
2023-04-20T07:27:53.013Z,136.73
2023-04-20T07:30:19.997Z,138.70
2023-04-20T07:32:46.992Z,140.00
2023-04-20T07:35:14.042Z,142.35
2023-04-20T07:37:41.225Z,134.77
2023-04-20T07:40:09.849Z,134.57
2023-04-20T07:42:37.584Z,138.68
2023-04-20T07:45:06.358Z,126.72
2023-04-20T07:47:37.340Z,138.95
2023-04-20T07:50:06.732Z,126.60
2023-04-20T07:52:33.817Z,119.32
2023-04-20T07:55:00.816Z,125.53
2023-04-20T07:57:29.681Z,124.97
2023-04-20T07:59:56.664Z,122.80
2023-04-20T08:02:24.421Z,112.70
2023-04-20T08:04:51.720Z,126.25
2023-04-20T08:07:19.273Z,115.30
2023-04-20T08:09:46.367Z,104.18
2023-04-20T08:12:13.336Z,108.72
2023-04-20T08:14:41.359Z,99.30
2023-04-20T08:17:08.540Z,94.85
2023-04-20T08:19:36.181Z,77.25
2023-04-20T08:22:04.245Z,91.30
2023-04-20T08:24:31.520Z,89.43
2023-04-20T08:26:59.327Z,102.90
2023-04-20T08:29:26.602Z,94.90
2023-04-20T08:31:53.622Z,110.80
2023-04-20T08:34:20.754Z,99.72
2023-04-20T08:36:47.835Z,89.00
2023-04-20T08:39:20.085Z,83.82
2023-04-20T08:41:48.129Z,92.15
2023-04-20T08:44:15.396Z,107.93
2023-04-20T08:46:48.018Z,96.35
2023-04-20T08:49:19.817Z,78.50
2023-04-20T08:51:48.194Z,79.53
2023-04-20T08:54:17.555Z,64.10
2023-04-20T08:56:47.046Z,71.55
2023-04-20T08:59:15.728Z,74.18
2023-04-20T09:01:44.323Z,61.35
2023-04-20T09:04:26.749Z,72.95
2023-04-20T09:06:56.143Z,69.85
2023-04-20T09:09:25.719Z,55.85
2023-04-20T09:12:10.245Z,56.58
2023-04-20T09:14:45.155Z,58.85
2023-04-20T09:17:14.621Z,57.63
2023-04-20T09:19:45.450Z,70.00
2023-04-20T09:22:12.794Z,67.57
2023-04-20T09:24:42.610Z,85.10
2023-04-20T09:27:17.694Z,84.63
2023-04-20T09:29:57.303Z,91.22
2023-04-20T09:32:25.677Z,80.57
2023-04-20T09:34:52.642Z,114.07
2023-04-20T09:37:19.981Z,118.10
2023-04-20T09:39:47.172Z,116.97
2023-04-20T09:42:16.547Z,113.20
2023-04-20T09:44:44.213Z,108.40
2023-04-20T09:47:19.048Z,112.07
2023-04-20T09:49:47.307Z,104.97
2023-04-20T09:52:18.859Z,108.18
2023-04-20T09:54:46.577Z,105.38
2023-04-20T09:57:14.740Z,109.18
2023-04-20T09:59:48.031Z,124.53
2023-04-20T10:02:15.382Z,113.72
2023-04-20T10:05:02.144Z,93.88
2023-04-20T10:07:35.201Z,87.72
2023-04-20T10:10:15.668Z,105.72
2023-04-20T10:12:55.525Z,101.95
2023-04-20T10:15:24.198Z,94.47
2023-04-20T10:17:51.394Z,85.78
2023-04-20T10:20:28.054Z,99.00
2023-04-20T10:23:10.024Z,73.78
2023-04-20T10:25:37.737Z,63.25
2023-04-20T10:28:09.668Z,64.15
2023-04-20T10:30:38.209Z,92.18
2023-04-20T10:33:13.245Z,123.65
2023-04-20T10:35:55.057Z,132.63
2023-04-20T10:38:35.874Z,113.05
2023-04-20T10:41:11.090Z,113.45
2023-04-20T10:43:44.476Z,123.68
2023-04-20T10:46:22.881Z,131.65
2023-04-20T10:49:01.713Z,133.75
2023-04-20T10:51:29.020Z,148.32
2023-04-20T10:54:06.785Z,136.20
2023-04-20T10:56:53.592Z,127.28
2023-04-20T10:59:25.011Z,158.70
2023-04-20T11:01:54.017Z,151.38
2023-04-20T11:04:33.654Z,131.98
2023-04-20T11:07:13.638Z,126.00
2023-04-20T11:09:42.784Z,125.90
2023-04-20T11:12:14.834Z,119.22
2023-04-20T11:15:00.292Z,110.50
2023-04-20T11:17:46.870Z,101.20
2023-04-20T11:20:17.034Z,99.20
2023-04-20T11:22:44.650Z,98.00
2023-04-20T11:25:12.926Z,101.97
2023-04-20T11:27:41.204Z,105.13
2023-04-20T11:30:09.909Z,102.68
2023-04-20T11:32:38.205Z,110.45
2023-04-20T11:35:09.318Z,103.35
2023-04-20T11:37:53.527Z,102.88
2023-04-20T11:40:21.298Z,103.97
2023-04-20T11:42:48.256Z,107.10
2023-04-20T11:45:15.862Z,109.38
2023-04-20T11:47:42.921Z,111.90
2023-04-20T11:50:11.583Z,108.22
2023-04-20T11:52:38.708Z,110.28
2023-04-20T11:55:06.668Z,102.25
2023-04-20T11:57:34.620Z,114.40
2023-04-20T12:00:01.742Z,105.80
2023-04-20T12:02:28.819Z,105.30
2023-04-20T12:04:55.939Z,95.18
2023-04-20T12:07:23.338Z,102.15
2023-04-20T12:09:50.289Z,119.63
2023-04-20T12:12:17.220Z,158.82
2023-04-20T12:14:44.261Z,194.43
2023-04-20T12:17:11.223Z,212.23
2023-04-20T12:19:38.183Z,182.35
2023-04-20T12:22:05.137Z,152.27
2023-04-20T12:24:32.088Z,110.28
2023-04-20T12:26:59.367Z,109.53
2023-04-20T12:29:26.425Z,101.00
2023-04-20T12:31:53.445Z,89.03
2023-04-20T12:34:20.831Z,86.30
2023-04-20T12:36:47.988Z,76.65
2023-04-20T12:39:16.078Z,75.40
2023-04-20T12:41:43.102Z,75.90
2023-04-20T12:44:11.529Z,73.43
2023-04-20T12:46:38.714Z,73.32
2023-04-20T12:49:05.799Z,70.72
2023-04-20T12:51:32.868Z,116.07
2023-04-20T12:54:00.108Z,78.07
2023-04-20T12:56:27.156Z,80.65
2023-04-20T12:58:54.089Z,86.22
2023-04-20T13:01:21.105Z,90.30
2023-04-20T13:03:50.927Z,91.20
2023-04-20T13:06:17.986Z,90.32
2023-04-20T13:08:44.988Z,90.55
2023-04-20T13:11:16.024Z,88.03
2023-04-20T13:13:42.989Z,88.45
2023-04-20T13:16:10.088Z,86.72
2023-04-20T13:18:38.177Z,83.93
2023-04-20T13:21:05.242Z,86.43
2023-04-20T13:23:32.309Z,77.72
2023-04-20T13:26:01.450Z,76.53
2023-04-20T13:28:28.679Z,73.85
2023-04-20T13:30:57.444Z,76.38
2023-04-20T13:33:24.808Z,81.70
2023-04-20T13:35:52.174Z,75.10
2023-04-20T13:38:19.386Z,82.80
2023-04-20T13:40:47.142Z,71.47
2023-04-20T13:43:15.447Z,63.50
2023-04-20T13:45:42.800Z,63.30
2023-04-20T13:48:09.995Z,66.35
2023-04-20T13:50:36.937Z,67.22
2023-04-20T13:53:04.029Z,57.75
2023-04-20T13:55:31.971Z,48.78
2023-04-20T13:57:58.950Z,59.10
2023-04-20T14:00:26.226Z,64.78
2023-04-20T14:02:53.457Z,52.55
2023-04-20T14:05:20.713Z,57.33
2023-04-20T14:07:47.724Z,63.75
2023-04-20T14:10:15.163Z,56.40
2023-04-20T14:12:42.124Z,64.55
2023-04-20T14:15:09.695Z,60.20
2023-04-20T14:17:36.735Z,58.33
2023-04-20T14:20:04.258Z,55.30
2023-04-20T14:22:35.789Z,34.92
2023-04-20T14:25:04.952Z,50.63
2023-04-20T14:27:32.370Z,59.50
2023-04-20T14:29:59.376Z,57.22
2023-04-20T14:32:26.364Z,45.55
2023-04-20T14:34:53.334Z,46.38
2023-04-20T14:37:20.277Z,43.70
2023-04-20T14:39:47.196Z,46.40
2023-04-20T14:42:14.268Z,39.95
2023-04-20T14:44:41.222Z,46.20
2023-04-20T14:47:08.195Z,53.33
2023-04-20T14:49:35.205Z,51.97
2023-04-20T14:52:02.195Z,55.63
2023-04-20T14:54:30.322Z,52.53
2023-04-20T14:56:57.379Z,51.17
2023-04-20T14:59:26.268Z,57.92
2023-04-20T15:02:02.403Z,56.03
2023-04-20T15:04:30.986Z,52.45
2023-04-20T15:06:58.327Z,54.53
2023-04-20T15:09:25.955Z,46.50
2023-04-20T15:11:52.948Z,47.63
2023-04-20T15:14:21.166Z,50.90
2023-04-20T15:16:48.250Z,55.22
2023-04-20T15:19:15.212Z,52.40
2023-04-20T15:21:43.477Z,55.38
2023-04-20T15:24:11.745Z,54.50
2023-04-20T15:26:38.677Z,220.98
2023-04-20T15:29:05.650Z,54.70
2023-04-20T15:31:32.731Z,54.85
2023-04-20T15:34:00.510Z,59.30
2023-04-20T15:36:27.624Z,75.47
2023-04-20T15:38:57.434Z,73.63
2023-04-20T15:41:24.785Z,66.05
2023-04-20T15:43:51.877Z,70.95
2023-04-20T15:46:23.101Z,72.57
2023-04-20T15:48:50.292Z,70.28
2023-04-20T15:51:20.000Z,66.55
2023-04-20T15:53:50.512Z,69.75
2023-04-20T15:56:22.513Z,74.07
2023-04-20T15:58:53.065Z,65.55
2023-04-20T16:01:20.863Z,60.10
2023-04-20T16:03:49.788Z,60.88
2023-04-20T16:06:17.043Z,67.22
2023-04-20T16:08:44.046Z,77.43
2023-04-20T16:11:11.046Z,61.05
2023-04-20T16:13:38.094Z,60.42
2023-04-20T16:16:05.303Z,56.83
2023-04-20T16:18:32.942Z,59.08
2023-04-20T16:20:59.929Z,59.60
2023-04-20T16:23:27.087Z,71.65
2023-04-20T16:25:54.164Z,60.15
2023-04-20T16:28:21.209Z,57.65
2023-04-20T16:30:48.277Z,61.05
2023-04-20T16:33:15.854Z,67.80
2023-04-20T16:35:42.828Z,68.45
2023-04-20T16:38:10.778Z,63.95
2023-04-20T16:40:37.907Z,65.50
2023-04-20T16:43:05.136Z,75.38
2023-04-20T16:45:33.074Z,74.72
2023-04-20T16:48:00.681Z,161.88
2023-04-20T16:50:28.134Z,78.75
2023-04-20T16:55:26.199Z,242.82
2023-04-20T16:57:59.710Z,235.32
2023-04-20T17:00:34.030Z,248.40
2023-04-20T17:03:01.398Z,231.70
2023-04-20T17:05:28.762Z,240.93
2023-04-20T17:07:55.700Z,241.57
2023-04-20T17:10:22.909Z,239.43
2023-04-20T17:12:50.828Z,237.57
2023-04-20T17:15:17.793Z,236.43
2023-04-20T17:17:44.888Z,232.63
2023-04-20T17:20:12.410Z,233.02
2023-04-20T17:22:39.331Z,230.48
2023-04-20T17:25:07.854Z,239.48
2023-04-20T17:27:35.125Z,236.00
2023-04-20T17:30:02.086Z,243.60
2023-04-20T17:32:29.101Z,234.60
2023-04-20T17:34:56.339Z,237.48
2023-04-20T17:37:23.384Z,231.48
2023-04-20T17:39:50.368Z,232.40
2023-04-20T17:42:17.682Z,234.90
2023-04-20T17:44:44.659Z,234.55
2023-04-20T17:47:14.750Z,234.77
2023-04-20T17:49:41.796Z,228.18
2023-04-20T17:52:12.361Z,238.18
2023-04-20T17:54:39.858Z,235.93
2023-04-20T17:57:08.805Z,243.07
2023-04-20T17:59:35.931Z,234.80
2023-04-20T18:02:03.676Z,241.80
2023-04-20T18:04:30.976Z,232.00
2023-04-20T18:06:58.090Z,226.68
2023-04-20T18:09:25.051Z,228.82
2023-04-20T18:11:52.736Z,223.68
2023-04-20T18:14:19.977Z,225.63
2023-04-20T18:16:51.714Z,224.70
2023-04-20T18:19:19.276Z,223.90
2023-04-20T18:21:46.459Z,224.77
2023-04-20T18:24:13.382Z,224.57
2023-04-20T18:26:40.422Z,220.15
2023-04-20T18:29:07.389Z,219.82
2023-04-20T18:31:34.458Z,232.18
2023-04-20T18:34:01.414Z,221.82
2023-04-20T18:36:29.661Z,220.63
2023-04-20T18:38:57.358Z,225.98
2023-04-20T18:41:25.732Z,230.85
2023-04-20T18:43:53.935Z,223.30
2023-04-20T18:46:21.013Z,227.32
2023-04-20T18:48:47.957Z,221.63
2023-04-20T18:51:15.016Z,225.27
2023-04-20T18:53:41.989Z,223.38
2023-04-20T18:56:10.129Z,222.18
2023-04-20T18:58:37.307Z,222.32
2023-04-20T19:01:04.480Z,220.07
2023-04-20T19:03:32.166Z,226.90
2023-04-20T19:05:59.381Z,219.70
2023-04-20T19:08:26.328Z,223.40
2023-04-20T19:10:56.491Z,223.10
2023-04-20T19:13:23.825Z,218.73
2023-04-20T19:15:55.131Z,218.30
2023-04-20T19:18:22.166Z,224.10
2023-04-20T19:20:49.152Z,218.45
2023-04-20T19:23:16.869Z,226.25
2023-04-20T19:25:44.268Z,219.13
2023-04-20T19:28:12.041Z,220.57
2023-04-20T19:30:39.111Z,286.75
2023-04-20T19:33:06.241Z,223.48
2023-04-20T19:35:33.554Z,220.63
2023-04-20T19:38:00.714Z,220.25
2023-04-20T19:40:27.834Z,220.82
2023-04-20T19:42:54.841Z,220.73
2023-04-20T19:45:21.888Z,232.15
2023-04-20T19:47:48.898Z,220.30
2023-04-20T19:50:16.398Z,218.20
2023-04-20T19:52:43.325Z,218.05
2023-04-20T19:55:10.478Z,222.70
2023-04-20T19:57:37.491Z,223.55
2023-04-20T20:00:05.589Z,220.15
2023-04-20T20:02:40.080Z,220.77
2023-04-20T20:05:08.221Z,217.25
2023-04-20T20:07:36.056Z,221.75
2023-04-20T20:10:04.650Z,220.13
2023-04-20T20:12:31.618Z,215.23
2023-04-20T20:14:58.579Z,221.00
2023-04-20T20:17:25.592Z,218.18
2023-04-20T20:19:53.796Z,220.13
2023-04-20T20:22:22.162Z,219.77
2023-04-20T20:24:51.147Z,220.00
2023-04-20T20:27:18.221Z,217.40
2023-04-20T20:29:45.458Z,218.40
2023-04-20T20:32:12.412Z,213.30
2023-04-20T20:34:39.389Z,219.10
2023-04-20T20:37:06.972Z,212.15
2023-04-20T20:39:33.887Z,217.18
2023-04-20T20:42:01.965Z,219.02
2023-04-20T20:44:32.766Z,217.27
2023-04-20T20:47:00.910Z,221.60
2023-04-20T20:49:28.241Z,219.15
2023-04-20T20:51:55.241Z,217.77
2023-04-20T20:54:22.307Z,214.05
2023-04-20T20:56:49.283Z,213.82
2023-04-20T20:59:16.411Z,217.73
2023-04-20T21:01:43.498Z,217.25
2023-04-20T21:04:10.623Z,214.27
2023-04-20T21:06:37.685Z,215.77
2023-04-20T21:09:04.642Z,217.85
2023-04-20T21:11:31.850Z,213.73
2023-04-20T21:14:01.787Z,217.07
2023-04-20T21:16:29.211Z,218.98
2023-04-20T21:18:56.311Z,221.10
2023-04-20T21:21:23.297Z,214.02
2023-04-20T21:23:50.741Z,216.10
2023-04-20T21:26:17.794Z,213.68
2023-04-20T21:28:44.833Z,214.00
2023-04-20T21:31:12.276Z,211.70
2023-04-20T21:33:39.398Z,215.40
2023-04-20T21:36:07.310Z,211.95
2023-04-20T21:38:34.727Z,216.55
2023-04-20T21:41:01.863Z,223.27
2023-04-20T21:43:28.913Z,218.30
2023-04-20T21:45:55.891Z,240.02
2023-04-20T21:48:22.913Z,222.70
2023-04-20T21:50:49.914Z,216.82
2023-04-20T21:53:16.860Z,213.23
2023-04-20T21:55:43.829Z,217.02
2023-04-20T21:58:10.935Z,212.70
2023-04-20T22:00:37.924Z,215.27
2023-04-20T22:03:05.378Z,214.40
2023-04-20T22:05:32.531Z,210.35
2023-04-20T22:07:59.669Z,208.90
2023-04-20T22:10:26.981Z,215.00
2023-04-20T22:12:53.974Z,215.05
2023-04-20T22:15:23.275Z,213.52
2023-04-20T22:17:50.366Z,214.55
2023-04-20T22:20:19.224Z,216.20
2023-04-20T22:22:46.677Z,211.57
2023-04-20T22:25:13.718Z,211.75
2023-04-20T22:27:40.922Z,214.00
2023-04-20T22:30:09.550Z,211.20
2023-04-20T22:32:38.439Z,212.68
2023-04-20T22:35:06.162Z,215.43
2023-04-20T22:37:33.281Z,216.02
2023-04-20T22:40:00.281Z,214.77
2023-04-20T22:42:27.412Z,213.82
2023-04-20T22:44:54.374Z,211.95
2023-04-20T22:47:21.527Z,212.48
2023-04-20T22:49:50.641Z,208.88
2023-04-20T22:52:17.550Z,216.90
2023-04-20T22:54:48.429Z,209.77
2023-04-20T22:57:15.930Z,216.65
2023-04-20T22:59:42.831Z,209.73
2023-04-20T23:02:11.028Z,215.48
2023-04-20T23:04:39.282Z,210.57
2023-04-20T23:07:07.984Z,213.15
2023-04-20T23:09:39.809Z,210.93
2023-04-20T23:12:11.671Z,206.80
2023-04-20T23:14:42.322Z,208.73
2023-04-20T23:17:09.886Z,210.50
2023-04-20T23:19:38.399Z,212.70
2023-04-20T23:22:08.698Z,209.23
2023-04-20T23:24:36.015Z,208.05
2023-04-20T23:27:03.432Z,204.35
2023-04-20T23:29:30.480Z,209.57
2023-04-20T23:31:57.463Z,209.43
2023-04-20T23:34:24.824Z,206.70
2023-04-20T23:36:53.866Z,209.90
2023-04-20T23:39:21.418Z,206.18
2023-04-20T23:41:48.575Z,212.82
2023-04-20T23:44:15.662Z,208.57
2023-04-20T23:46:42.616Z,208.65
2023-04-20T23:49:09.537Z,209.43
2023-04-20T23:51:36.486Z,203.17
2023-04-20T23:54:03.578Z,207.23
2023-04-20T23:56:30.777Z,208.18
2023-04-20T23:58:59.251Z,208.80
